sensor_id;sensor_type;location;lat;lon;timestamp;temperature;humidity
69895;DHT22;57172;52.034;5.090;2022-10-17T00:00:35;15.20;76.30
69895;DHT22;57172;52.034;5.090;2022-10-17T00:03:02;15.20;76.30
69895;DHT22;57172;52.034;5.090;2022-10-17T00:05:29;15.20;76.30
69895;DHT22;57172;52.034;5.090;2022-10-17T00:07:56;15.20;76.30
69895;DHT22;57172;52.034;5.090;2022-10-17T00:10:23;15.20;76.40
69895;DHT22;57172;52.034;5.090;2022-10-17T00:12:51;15.20;76.50
69895;DHT22;57172;52.034;5.090;2022-10-17T00:15:19;15.10;76.60
69895;DHT22;57172;52.034;5.090;2022-10-17T00:17:46;15.10;76.70
69895;DHT22;57172;52.034;5.090;2022-10-17T00:20:14;15.10;76.80
69895;DHT22;57172;52.034;5.090;2022-10-17T00:22:41;15.10;76.90
69895;DHT22;57172;52.034;5.090;2022-10-17T00:25:09;15.10;77.20
69895;DHT22;57172;52.034;5.090;2022-10-17T00:27:37;15.00;77.30
69895;DHT22;57172;52.034;5.090;2022-10-17T00:30:06;15.00;77.40
69895;DHT22;57172;52.034;5.090;2022-10-17T00:32:33;15.00;77.50
69895;DHT22;57172;52.034;5.090;2022-10-17T00:35:00;15.00;77.50
69895;DHT22;57172;52.034;5.090;2022-10-17T00:37:29;15.00;77.60
69895;DHT22;57172;52.034;5.090;2022-10-17T00:39:56;15.00;77.70
69895;DHT22;57172;52.034;5.090;2022-10-17T00:42:24;15.00;77.80
69895;DHT22;57172;52.034;5.090;2022-10-17T00:47:30;15.00;78.10
69895;DHT22;57172;52.034;5.090;2022-10-17T00:49:58;15.10;78.00
69895;DHT22;57172;52.034;5.090;2022-10-17T00:52:27;15.10;77.90
69895;DHT22;57172;52.034;5.090;2022-10-17T00:55:13;15.10;78.10
69895;DHT22;57172;52.034;5.090;2022-10-17T00:57:40;15.10;78.30
69895;DHT22;57172;52.034;5.090;2022-10-17T01:00:09;15.10;78.30
69895;DHT22;57172;52.034;5.090;2022-10-17T01:02:37;15.10;78.20
69895;DHT22;57172;52.034;5.090;2022-10-17T01:05:04;15.10;78.30
69895;DHT22;57172;52.034;5.090;2022-10-17T01:07:34;15.10;78.30
69895;DHT22;57172;52.034;5.090;2022-10-17T01:10:04;15.10;78.30
69895;DHT22;57172;52.034;5.090;2022-10-17T01:26:55;15.10;78.60
69895;DHT22;57172;52.034;5.090;2022-10-17T01:32:02;15.10;78.50
69895;DHT22;57172;52.034;5.090;2022-10-17T01:37:11;15.10;78.70
69895;DHT22;57172;52.034;5.090;2022-10-17T01:39:47;15.10;78.80
69895;DHT22;57172;52.034;5.090;2022-10-17T01:42:23;15.00;78.80
69895;DHT22;57172;52.034;5.090;2022-10-17T01:44:57;15.10;78.80
69895;DHT22;57172;52.034;5.090;2022-10-17T01:47:29;15.10;79.00
69895;DHT22;57172;52.034;5.090;2022-10-17T01:50:36;15.10;79.10
69895;DHT22;57172;52.034;5.090;2022-10-17T01:53:15;15.10;79.20
69895;DHT22;57172;52.034;5.090;2022-10-17T01:55:46;15.10;79.20
69895;DHT22;57172;52.034;5.090;2022-10-17T01:58:23;15.10;79.20
69895;DHT22;57172;52.034;5.090;2022-10-17T02:00:53;15.10;79.50
69895;DHT22;57172;52.034;5.090;2022-10-17T02:03:23;15.10;79.40
69895;DHT22;57172;52.034;5.090;2022-10-17T02:05:51;15.10;79.30
69895;DHT22;57172;52.034;5.090;2022-10-17T02:08:26;15.10;79.30
69895;DHT22;57172;52.034;5.090;2022-10-17T02:24:44;15.20;80.20
69895;DHT22;57172;52.034;5.090;2022-10-17T02:30:00;15.20;80.30
69895;DHT22;57172;52.034;5.090;2022-10-17T02:35:26;15.20;80.30
69895;DHT22;57172;52.034;5.090;2022-10-17T02:37:55;15.20;80.50
69895;DHT22;57172;52.034;5.090;2022-10-17T02:40:23;15.20;80.50
69895;DHT22;57172;52.034;5.090;2022-10-17T02:42:52;15.20;80.60
69895;DHT22;57172;52.034;5.090;2022-10-17T02:45:21;15.20;80.50
69895;DHT22;57172;52.034;5.090;2022-10-17T02:48:14;15.30;81.00
69895;DHT22;57172;52.034;5.090;2022-10-17T02:50:57;15.30;80.90
69895;DHT22;57172;52.034;5.090;2022-10-17T02:53:43;15.30;81.00
69895;DHT22;57172;52.034;5.090;2022-10-17T02:56:16;15.30;81.20
69895;DHT22;57172;52.034;5.090;2022-10-17T02:58:49;15.30;81.40
69895;DHT22;57172;52.034;5.090;2022-10-17T03:01:17;15.30;81.60
69895;DHT22;57172;52.034;5.090;2022-10-17T03:03:44;15.40;81.60
69895;DHT22;57172;52.034;5.090;2022-10-17T03:06:11;15.40;81.60
69895;DHT22;57172;52.034;5.090;2022-10-17T03:08:38;15.50;81.90
69895;DHT22;57172;52.034;5.090;2022-10-17T03:11:05;15.50;81.70
69895;DHT22;57172;52.034;5.090;2022-10-17T03:13:32;15.50;81.60
69895;DHT22;57172;52.034;5.090;2022-10-17T03:16:04;15.60;82.10
69895;DHT22;57172;52.034;5.090;2022-10-17T03:18:32;15.60;82.00
69895;DHT22;57172;52.034;5.090;2022-10-17T03:21:00;15.70;81.90
69895;DHT22;57172;52.034;5.090;2022-10-17T03:23:27;15.80;82.00
69895;DHT22;57172;52.034;5.090;2022-10-17T03:25:54;15.80;82.20
69895;DHT22;57172;52.034;5.090;2022-10-17T03:28:21;15.90;82.10
69895;DHT22;57172;52.034;5.090;2022-10-17T03:30:48;15.90;82.90
69895;DHT22;57172;52.034;5.090;2022-10-17T03:33:14;16.00;82.90
69895;DHT22;57172;52.034;5.090;2022-10-17T03:35:41;16.00;82.80
69895;DHT22;57172;52.034;5.090;2022-10-17T03:38:08;16.10;82.60
69895;DHT22;57172;52.034;5.090;2022-10-17T03:40:35;16.10;82.70
69895;DHT22;57172;52.034;5.090;2022-10-17T03:43:03;16.20;82.60
69895;DHT22;57172;52.034;5.090;2022-10-17T03:45:29;16.20;82.30
69895;DHT22;57172;52.034;5.090;2022-10-17T03:47:58;16.30;82.50
69895;DHT22;57172;52.034;5.090;2022-10-17T03:50:25;16.30;82.70
69895;DHT22;57172;52.034;5.090;2022-10-17T03:52:52;16.30;82.50
69895;DHT22;57172;52.034;5.090;2022-10-17T03:55:18;16.30;82.40
69895;DHT22;57172;52.034;5.090;2022-10-17T03:57:46;16.30;82.10
69895;DHT22;57172;52.034;5.090;2022-10-17T04:00:14;16.40;82.20
69895;DHT22;57172;52.034;5.090;2022-10-17T04:02:48;16.40;82.40
69895;DHT22;57172;52.034;5.090;2022-10-17T04:05:17;16.40;82.60
69895;DHT22;57172;52.034;5.090;2022-10-17T04:07:45;16.40;82.40
69895;DHT22;57172;52.034;5.090;2022-10-17T04:10:13;16.40;82.50
69895;DHT22;57172;52.034;5.090;2022-10-17T04:12:41;16.40;82.40
69895;DHT22;57172;52.034;5.090;2022-10-17T04:15:08;16.40;82.30
69895;DHT22;57172;52.034;5.090;2022-10-17T04:17:36;16.40;82.10
69895;DHT22;57172;52.034;5.090;2022-10-17T04:20:05;16.40;82.20
69895;DHT22;57172;52.034;5.090;2022-10-17T04:22:33;16.40;82.30
69895;DHT22;57172;52.034;5.090;2022-10-17T04:25:00;16.50;82.40
69895;DHT22;57172;52.034;5.090;2022-10-17T04:27:32;16.40;82.20
69895;DHT22;57172;52.034;5.090;2022-10-17T04:30:00;16.50;82.40
69895;DHT22;57172;52.034;5.090;2022-10-17T04:32:29;16.50;82.40
69895;DHT22;57172;52.034;5.090;2022-10-17T04:35:08;16.50;82.30
69895;DHT22;57172;52.034;5.090;2022-10-17T04:37:36;16.50;82.10
69895;DHT22;57172;52.034;5.090;2022-10-17T04:40:09;16.50;82.20
69895;DHT22;57172;52.034;5.090;2022-10-17T04:42:36;16.50;82.20
69895;DHT22;57172;52.034;5.090;2022-10-17T04:45:04;16.50;82.30
69895;DHT22;57172;52.034;5.090;2022-10-17T04:47:31;16.60;82.20
69895;DHT22;57172;52.034;5.090;2022-10-17T04:49:59;16.60;82.10
69895;DHT22;57172;52.034;5.090;2022-10-17T04:52:26;16.60;82.20
69895;DHT22;57172;52.034;5.090;2022-10-17T04:54:53;16.60;82.10
69895;DHT22;57172;52.034;5.090;2022-10-17T04:57:20;16.60;82.30
69895;DHT22;57172;52.034;5.090;2022-10-17T05:00:00;16.60;82.30
69895;DHT22;57172;52.034;5.090;2022-10-17T05:02:47;16.60;82.10
69895;DHT22;57172;52.034;5.090;2022-10-17T05:05:14;16.60;82.20
69895;DHT22;57172;52.034;5.090;2022-10-17T05:07:43;16.60;82.00
69895;DHT22;57172;52.034;5.090;2022-10-17T05:10:17;16.70;82.00
69895;DHT22;57172;52.034;5.090;2022-10-17T05:12:47;16.70;82.00
69895;DHT22;57172;52.034;5.090;2022-10-17T05:15:16;16.70;82.00
69895;DHT22;57172;52.034;5.090;2022-10-17T05:17:43;16.70;82.00
69895;DHT22;57172;52.034;5.090;2022-10-17T05:20:10;16.70;82.20
69895;DHT22;57172;52.034;5.090;2022-10-17T05:22:37;16.70;82.30
69895;DHT22;57172;52.034;5.090;2022-10-17T05:25:09;16.70;82.10
69895;DHT22;57172;52.034;5.090;2022-10-17T05:27:35;16.80;82.10
69895;DHT22;57172;52.034;5.090;2022-10-17T05:30:04;16.80;82.10
69895;DHT22;57172;52.034;5.090;2022-10-17T05:32:34;16.80;82.10
69895;DHT22;57172;52.034;5.090;2022-10-17T05:35:01;16.80;82.00
69895;DHT22;57172;52.034;5.090;2022-10-17T05:37:30;16.80;81.90
69895;DHT22;57172;52.034;5.090;2022-10-17T05:39:58;16.80;82.00
69895;DHT22;57172;52.034;5.090;2022-10-17T05:42:25;16.80;82.10
69895;DHT22;57172;52.034;5.090;2022-10-17T05:44:53;16.90;82.00
69895;DHT22;57172;52.034;5.090;2022-10-17T05:47:20;16.90;81.70
69895;DHT22;57172;52.034;5.090;2022-10-17T05:49:47;17.00;81.50
69895;DHT22;57172;52.034;5.090;2022-10-17T05:52:24;17.00;81.50
69895;DHT22;57172;52.034;5.090;2022-10-17T05:55:11;17.00;81.10
69895;DHT22;57172;52.034;5.090;2022-10-17T05:57:38;17.00;81.00
69895;DHT22;57172;52.034;5.090;2022-10-17T06:00:10;16.90;81.00
69895;DHT22;57172;52.034;5.090;2022-10-17T06:02:41;16.90;81.50
69895;DHT22;57172;52.034;5.090;2022-10-17T06:05:09;16.90;81.70
69895;DHT22;57172;52.034;5.090;2022-10-17T06:07:36;16.90;82.00
69895;DHT22;57172;52.034;5.090;2022-10-17T06:10:05;16.90;82.00
69895;DHT22;57172;52.034;5.090;2022-10-17T06:12:33;16.90;82.00
69895;DHT22;57172;52.034;5.090;2022-10-17T06:15:00;16.90;82.10
69895;DHT22;57172;52.034;5.090;2022-10-17T06:17:27;16.90;82.00
69895;DHT22;57172;52.034;5.090;2022-10-17T06:19:55;17.00;82.20
69895;DHT22;57172;52.034;5.090;2022-10-17T06:22:23;17.00;82.30
69895;DHT22;57172;52.034;5.090;2022-10-17T06:24:50;17.00;82.20
69895;DHT22;57172;52.034;5.090;2022-10-17T06:27:19;17.00;82.00
69895;DHT22;57172;52.034;5.090;2022-10-17T06:29:47;17.00;82.00
69895;DHT22;57172;52.034;5.090;2022-10-17T06:32:15;17.00;82.00
69895;DHT22;57172;52.034;5.090;2022-10-17T06:34:45;17.00;82.00
69895;DHT22;57172;52.034;5.090;2022-10-17T06:37:13;17.10;82.00
69895;DHT22;57172;52.034;5.090;2022-10-17T06:39:40;17.10;82.00
69895;DHT22;57172;52.034;5.090;2022-10-17T06:42:20;17.10;82.10
69895;DHT22;57172;52.034;5.090;2022-10-17T06:44:54;17.10;82.30
69895;DHT22;57172;52.034;5.090;2022-10-17T06:47:50;17.10;82.20
69895;DHT22;57172;52.034;5.090;2022-10-17T06:50:37;17.20;82.10
69895;DHT22;57172;52.034;5.090;2022-10-17T06:53:17;17.20;82.00
69895;DHT22;57172;52.034;5.090;2022-10-17T06:56:03;17.20;81.90
69895;DHT22;57172;52.034;5.090;2022-10-17T06:58:57;17.20;82.00
69895;DHT22;57172;52.034;5.090;2022-10-17T07:01:34;17.20;81.90
69895;DHT22;57172;52.034;5.090;2022-10-17T07:04:03;17.30;81.80
69895;DHT22;57172;52.034;5.090;2022-10-17T07:06:30;17.30;81.80
69895;DHT22;57172;52.034;5.090;2022-10-17T07:09:03;17.40;81.70
69895;DHT22;57172;52.034;5.090;2022-10-17T07:11:34;17.40;81.60
69895;DHT22;57172;52.034;5.090;2022-10-17T07:14:01;17.40;81.50
69895;DHT22;57172;52.034;5.090;2022-10-17T07:16:28;17.40;81.50
69895;DHT22;57172;52.034;5.090;2022-10-17T07:19:03;17.40;81.50
69895;DHT22;57172;52.034;5.090;2022-10-17T07:21:34;17.50;81.40
69895;DHT22;57172;52.034;5.090;2022-10-17T07:24:05;17.50;81.40
69895;DHT22;57172;52.034;5.090;2022-10-17T07:26:33;17.50;81.30
69895;DHT22;57172;52.034;5.090;2022-10-17T07:29:00;17.50;81.30
69895;DHT22;57172;52.034;5.090;2022-10-17T07:31:35;17.50;81.40
69895;DHT22;57172;52.034;5.090;2022-10-17T07:34:02;17.50;81.40
69895;DHT22;57172;52.034;5.090;2022-10-17T07:36:29;17.50;81.50
69895;DHT22;57172;52.034;5.090;2022-10-17T07:38:57;17.60;81.50
69895;DHT22;57172;52.034;5.090;2022-10-17T07:41:25;17.60;81.50
69895;DHT22;57172;52.034;5.090;2022-10-17T07:43:52;17.60;81.50
69895;DHT22;57172;52.034;5.090;2022-10-17T07:46:23;17.60;81.40
69895;DHT22;57172;52.034;5.090;2022-10-17T07:48:50;17.60;81.50
69895;DHT22;57172;52.034;5.090;2022-10-17T07:51:19;17.60;81.70
69895;DHT22;57172;52.034;5.090;2022-10-17T07:53:47;17.60;81.90
69895;DHT22;57172;52.034;5.090;2022-10-17T07:56:14;17.50;82.10
69895;DHT22;57172;52.034;5.090;2022-10-17T07:58:41;17.50;82.10
69895;DHT22;57172;52.034;5.090;2022-10-17T08:01:10;17.50;82.40
69895;DHT22;57172;52.034;5.090;2022-10-17T08:03:43;17.40;82.80
69895;DHT22;57172;52.034;5.090;2022-10-17T08:06:10;17.30;83.20
69895;DHT22;57172;52.034;5.090;2022-10-17T08:08:37;17.30;83.20
69895;DHT22;57172;52.034;5.090;2022-10-17T08:11:06;17.20;83.70
69895;DHT22;57172;52.034;5.090;2022-10-17T08:13:34;17.10;84.30
69895;DHT22;57172;52.034;5.090;2022-10-17T08:16:04;17.00;84.80
69895;DHT22;57172;52.034;5.090;2022-10-17T08:18:34;17.00;84.80
69895;DHT22;57172;52.034;5.090;2022-10-17T08:21:02;16.90;85.00
69895;DHT22;57172;52.034;5.090;2022-10-17T08:23:31;16.90;85.20
69895;DHT22;57172;52.034;5.090;2022-10-17T08:25:59;16.90;85.40
69895;DHT22;57172;52.034;5.090;2022-10-17T08:28:26;16.90;85.60
69895;DHT22;57172;52.034;5.090;2022-10-17T08:31:04;16.90;85.90
69895;DHT22;57172;52.034;5.090;2022-10-17T08:33:31;16.90;86.00
69895;DHT22;57172;52.034;5.090;2022-10-17T08:36:00;17.00;86.00
69895;DHT22;57172;52.034;5.090;2022-10-17T08:38:30;17.00;86.00
69895;DHT22;57172;52.034;5.090;2022-10-17T08:41:13;17.00;86.10
69895;DHT22;57172;52.034;5.090;2022-10-17T08:46:36;17.00;86.30
69895;DHT22;57172;52.034;5.090;2022-10-17T08:49:11;17.00;86.30
69895;DHT22;57172;52.034;5.090;2022-10-17T08:51:47;17.00;86.20
69895;DHT22;57172;52.034;5.090;2022-10-17T08:54:42;17.00;86.40
69895;DHT22;57172;52.034;5.090;2022-10-17T08:57:13;17.00;86.50
69895;DHT22;57172;52.034;5.090;2022-10-17T08:59:42;17.00;86.50
69895;DHT22;57172;52.034;5.090;2022-10-17T09:10:16;17.20;86.40
69895;DHT22;57172;52.034;5.090;2022-10-17T09:15:39;17.20;86.50
69895;DHT22;57172;52.034;5.090;2022-10-17T09:18:19;17.20;86.50
69895;DHT22;57172;52.034;5.090;2022-10-17T09:20:55;17.20;86.40
69895;DHT22;57172;52.034;5.090;2022-10-17T09:23:35;17.20;86.30
69895;DHT22;57172;52.034;5.090;2022-10-17T09:26:09;17.20;86.40
69895;DHT22;57172;52.034;5.090;2022-10-17T09:28:38;17.30;86.50
69895;DHT22;57172;52.034;5.090;2022-10-17T09:31:20;17.20;86.50
69895;DHT22;57172;52.034;5.090;2022-10-17T09:33:50;17.20;86.50
69895;DHT22;57172;52.034;5.090;2022-10-17T09:36:35;17.20;86.60
69895;DHT22;57172;52.034;5.090;2022-10-17T09:39:11;17.20;86.70
69895;DHT22;57172;52.034;5.090;2022-10-17T09:41:48;17.30;86.80
69895;DHT22;57172;52.034;5.090;2022-10-17T09:49:40;17.40;86.70
69895;DHT22;57172;52.034;5.090;2022-10-17T09:52:14;17.40;86.70
69895;DHT22;57172;52.034;5.090;2022-10-17T09:54:49;17.40;86.70
69895;DHT22;57172;52.034;5.090;2022-10-17T09:57:18;17.40;86.70
69895;DHT22;57172;52.034;5.090;2022-10-17T09:59:57;17.40;86.70
69895;DHT22;57172;52.034;5.090;2022-10-17T10:02:27;17.50;86.70
69895;DHT22;57172;52.034;5.090;2022-10-17T10:05:00;17.50;86.90
69895;DHT22;57172;52.034;5.090;2022-10-17T10:07:34;17.50;87.10
69895;DHT22;57172;52.034;5.090;2022-10-17T10:10:03;17.60;87.00
69895;DHT22;57172;52.034;5.090;2022-10-17T10:12:37;17.60;86.70
69895;DHT22;57172;52.034;5.090;2022-10-17T10:15:31;17.70;86.60
69895;DHT22;57172;52.034;5.090;2022-10-17T10:17:59;17.70;86.40
69895;DHT22;57172;52.034;5.090;2022-10-17T10:20:33;17.60;86.40
69895;DHT22;57172;52.034;5.090;2022-10-17T10:25:32;17.70;86.50
69895;DHT22;57172;52.034;5.090;2022-10-17T10:28:00;17.60;86.40
69895;DHT22;57172;52.034;5.090;2022-10-17T10:30:29;17.60;86.50
69895;DHT22;57172;52.034;5.090;2022-10-17T10:33:03;17.60;86.40
69895;DHT22;57172;52.034;5.090;2022-10-17T10:35:34;17.60;86.40
69895;DHT22;57172;52.034;5.090;2022-10-17T10:38:08;17.60;86.50
69895;DHT22;57172;52.034;5.090;2022-10-17T10:41:02;17.60;86.60
69895;DHT22;57172;52.034;5.090;2022-10-17T10:43:40;17.60;86.60
69895;DHT22;57172;52.034;5.090;2022-10-17T10:46:24;17.60;86.60
69895;DHT22;57172;52.034;5.090;2022-10-17T10:49:00;17.60;86.60
69895;DHT22;57172;52.034;5.090;2022-10-17T10:51:45;17.60;86.70
69895;DHT22;57172;52.034;5.090;2022-10-17T10:54:18;17.60;86.70
69895;DHT22;57172;52.034;5.090;2022-10-17T10:57:03;17.70;86.90
69895;DHT22;57172;52.034;5.090;2022-10-17T10:59:41;17.70;86.90
69895;DHT22;57172;52.034;5.090;2022-10-17T11:02:18;17.80;86.50
69895;DHT22;57172;52.034;5.090;2022-10-17T11:05:05;17.80;86.50
69895;DHT22;57172;52.034;5.090;2022-10-17T11:07:59;17.80;86.30
69895;DHT22;57172;52.034;5.090;2022-10-17T11:15:51;17.80;86.00
69895;DHT22;57172;52.034;5.090;2022-10-17T11:18:27;17.80;86.00
69895;DHT22;57172;52.034;5.090;2022-10-17T11:24:06;17.80;85.80
69895;DHT22;57172;52.034;5.090;2022-10-17T11:26:41;17.80;86.00
69895;DHT22;57172;52.034;5.090;2022-10-17T11:29:12;17.80;86.10
69895;DHT22;57172;52.034;5.090;2022-10-17T11:31:47;17.80;85.90
69895;DHT22;57172;52.034;5.090;2022-10-17T11:34:18;17.80;85.90
69895;DHT22;57172;52.034;5.090;2022-10-17T11:36:49;17.80;86.00
69895;DHT22;57172;52.034;5.090;2022-10-17T11:39:26;17.80;86.00
69895;DHT22;57172;52.034;5.090;2022-10-17T11:42:04;17.80;86.00
69895;DHT22;57172;52.034;5.090;2022-10-17T11:44:37;17.70;86.10
69895;DHT22;57172;52.034;5.090;2022-10-17T11:47:22;17.70;86.30
69895;DHT22;57172;52.034;5.090;2022-10-17T11:49:57;17.70;86.40
69895;DHT22;57172;52.034;5.090;2022-10-17T11:52:53;17.70;86.40
69895;DHT22;57172;52.034;5.090;2022-10-17T11:55:23;17.80;86.30
69895;DHT22;57172;52.034;5.090;2022-10-17T11:58:27;17.80;86.20
69895;DHT22;57172;52.034;5.090;2022-10-17T12:04:20;17.80;86.20
69895;DHT22;57172;52.034;5.090;2022-10-17T12:07:10;17.80;86.00
69895;DHT22;57172;52.034;5.090;2022-10-17T12:12:32;17.70;85.20
69895;DHT22;57172;52.034;5.090;2022-10-17T12:17:58;17.60;85.00
69895;DHT22;57172;52.034;5.090;2022-10-17T12:20:34;17.50;85.10
69895;DHT22;57172;52.034;5.090;2022-10-17T12:33:34;17.50;84.80
69895;DHT22;57172;52.034;5.090;2022-10-17T12:52:18;17.50;85.50
69895;DHT22;57172;52.034;5.090;2022-10-17T12:55:09;17.50;85.60
69895;DHT22;57172;52.034;5.090;2022-10-17T13:02:54;17.60;85.90
69895;DHT22;57172;52.034;5.090;2022-10-17T13:05:33;17.70;86.00
69895;DHT22;57172;52.034;5.090;2022-10-17T13:08:02;17.80;86.20
69895;DHT22;57172;52.034;5.090;2022-10-17T13:10:33;17.90;86.20
69895;DHT22;57172;52.034;5.090;2022-10-17T13:13:17;18.00;86.30
69895;DHT22;57172;52.034;5.090;2022-10-17T13:15:51;18.10;86.20
69895;DHT22;57172;52.034;5.090;2022-10-17T13:18:24;18.20;86.40
69895;DHT22;57172;52.034;5.090;2022-10-17T13:21:03;18.30;86.40
69895;DHT22;57172;52.034;5.090;2022-10-17T13:23:35;18.40;85.90
69895;DHT22;57172;52.034;5.090;2022-10-17T13:26:12;18.50;85.60
69895;DHT22;57172;52.034;5.090;2022-10-17T13:28:41;18.50;84.80
69895;DHT22;57172;52.034;5.090;2022-10-17T13:31:33;18.50;84.90
69895;DHT22;57172;52.034;5.090;2022-10-17T13:34:04;18.60;84.70
69895;DHT22;57172;52.034;5.090;2022-10-17T13:36:33;18.60;84.30
69895;DHT22;57172;52.034;5.090;2022-10-17T13:39:06;18.50;83.90
69895;DHT22;57172;52.034;5.090;2022-10-17T13:41:39;18.50;83.60
69895;DHT22;57172;52.034;5.090;2022-10-17T13:44:13;18.50;83.80
69895;DHT22;57172;52.034;5.090;2022-10-17T13:46:42;18.50;83.60
69895;DHT22;57172;52.034;5.090;2022-10-17T13:49:39;18.50;83.50
69895;DHT22;57172;52.034;5.090;2022-10-17T13:52:17;18.50;83.50
69895;DHT22;57172;52.034;5.090;2022-10-17T13:54:46;18.50;83.40
69895;DHT22;57172;52.034;5.090;2022-10-17T13:57:23;18.50;83.30
69895;DHT22;57172;52.034;5.090;2022-10-17T14:00:03;18.50;83.10
69895;DHT22;57172;52.034;5.090;2022-10-17T14:02:41;18.50;83.10
69895;DHT22;57172;52.034;5.090;2022-10-17T14:05:14;18.50;83.40
69895;DHT22;57172;52.034;5.090;2022-10-17T14:10:43;18.60;83.00
69895;DHT22;57172;52.034;5.090;2022-10-17T14:13:27;18.60;83.10
69895;DHT22;57172;52.034;5.090;2022-10-17T14:15:59;18.70;83.00
69895;DHT22;57172;52.034;5.090;2022-10-17T14:18:29;18.70;83.20
69895;DHT22;57172;52.034;5.090;2022-10-17T14:21:03;18.80;83.00
69895;DHT22;57172;52.034;5.090;2022-10-17T14:23:52;18.90;83.40
69895;DHT22;57172;52.034;5.090;2022-10-17T14:26:22;19.10;83.60
69895;DHT22;57172;52.034;5.090;2022-10-17T14:29:03;19.30;84.00
69895;DHT22;57172;52.034;5.090;2022-10-17T14:31:34;19.60;83.60
69895;DHT22;57172;52.034;5.090;2022-10-17T14:34:03;19.70;83.00
69895;DHT22;57172;52.034;5.090;2022-10-17T14:36:37;19.90;82.10
69895;DHT22;57172;52.034;5.090;2022-10-17T14:39:06;20.10;81.30
69895;DHT22;57172;52.034;5.090;2022-10-17T14:41:43;20.20;81.20
69895;DHT22;57172;52.034;5.090;2022-10-17T14:44:34;20.30;79.80
69895;DHT22;57172;52.034;5.090;2022-10-17T14:47:04;20.40;79.10
69895;DHT22;57172;52.034;5.090;2022-10-17T14:50:06;20.30;78.20
69895;DHT22;57172;52.034;5.090;2022-10-17T14:52:33;20.20;77.40
69895;DHT22;57172;52.034;5.090;2022-10-17T14:55:24;20.10;77.20
69895;DHT22;57172;52.034;5.090;2022-10-17T14:57:51;19.90;77.20
69895;DHT22;57172;52.034;5.090;2022-10-17T15:00:19;19.80;77.10
69895;DHT22;57172;52.034;5.090;2022-10-17T15:02:48;19.70;77.20
69895;DHT22;57172;52.034;5.090;2022-10-17T15:05:15;19.60;77.50
69895;DHT22;57172;52.034;5.090;2022-10-17T15:07:42;19.50;77.40
69895;DHT22;57172;52.034;5.090;2022-10-17T15:12:55;19.50;77.30
69895;DHT22;57172;52.034;5.090;2022-10-17T15:15:30;19.40;77.40
69895;DHT22;57172;52.034;5.090;2022-10-17T15:17:58;19.40;77.60
69895;DHT22;57172;52.034;5.090;2022-10-17T15:20:26;19.40;77.60
69895;DHT22;57172;52.034;5.090;2022-10-17T15:22:57;19.40;77.50
69895;DHT22;57172;52.034;5.090;2022-10-17T15:25:26;19.40;77.30
69895;DHT22;57172;52.034;5.090;2022-10-17T15:27:53;19.40;77.50
69895;DHT22;57172;52.034;5.090;2022-10-17T15:30:26;19.40;77.20
69895;DHT22;57172;52.034;5.090;2022-10-17T15:32:53;19.40;77.10
69895;DHT22;57172;52.034;5.090;2022-10-17T15:35:21;19.40;77.00
69895;DHT22;57172;52.034;5.090;2022-10-17T15:37:49;19.30;76.90
69895;DHT22;57172;52.034;5.090;2022-10-17T15:40:21;19.30;76.80
69895;DHT22;57172;52.034;5.090;2022-10-17T15:42:48;19.20;76.70
69895;DHT22;57172;52.034;5.090;2022-10-17T15:45:18;19.10;76.80
69895;DHT22;57172;52.034;5.090;2022-10-17T15:48:03;19.00;76.70
69895;DHT22;57172;52.034;5.090;2022-10-17T15:50:30;18.90;76.70
69895;DHT22;57172;52.034;5.090;2022-10-17T15:52:58;18.90;76.80
69895;DHT22;57172;52.034;5.090;2022-10-17T15:55:25;18.80;77.00
69895;DHT22;57172;52.034;5.090;2022-10-17T15:57:52;18.70;77.00
69895;DHT22;57172;52.034;5.090;2022-10-17T16:00:22;18.60;77.10
69895;DHT22;57172;52.034;5.090;2022-10-17T16:02:50;18.60;77.20
69895;DHT22;57172;52.034;5.090;2022-10-17T16:05:19;18.50;77.20
69895;DHT22;57172;52.034;5.090;2022-10-17T16:07:52;18.50;77.30
69895;DHT22;57172;52.034;5.090;2022-10-17T16:10:19;18.40;77.40
69895;DHT22;57172;52.034;5.090;2022-10-17T16:12:46;18.40;77.30
69895;DHT22;57172;52.034;5.090;2022-10-17T16:15:24;18.40;77.20
69895;DHT22;57172;52.034;5.090;2022-10-17T16:17:53;18.40;77.30
69895;DHT22;57172;52.034;5.090;2022-10-17T16:20:21;18.30;77.20
69895;DHT22;57172;52.034;5.090;2022-10-17T16:22:49;18.30;77.30
69895;DHT22;57172;52.034;5.090;2022-10-17T16:25:22;18.20;77.30
69895;DHT22;57172;52.034;5.090;2022-10-17T16:27:52;18.20;77.40
69895;DHT22;57172;52.034;5.090;2022-10-17T16:30:20;18.20;77.50
69895;DHT22;57172;52.034;5.090;2022-10-17T16:32:48;18.10;77.60
69895;DHT22;57172;52.034;5.090;2022-10-17T16:35:23;18.10;77.60
69895;DHT22;57172;52.034;5.090;2022-10-17T16:37:50;18.00;77.70
69895;DHT22;57172;52.034;5.090;2022-10-17T16:40:18;18.00;77.70
69895;DHT22;57172;52.034;5.090;2022-10-17T16:42:45;18.00;77.90
69895;DHT22;57172;52.034;5.090;2022-10-17T16:45:20;17.90;77.90
69895;DHT22;57172;52.034;5.090;2022-10-17T16:47:47;17.90;78.00
69895;DHT22;57172;52.034;5.090;2022-10-17T16:50:15;17.90;78.10
69895;DHT22;57172;52.034;5.090;2022-10-17T16:52:42;17.80;78.20
69895;DHT22;57172;52.034;5.090;2022-10-17T16:55:09;17.80;78.20
69895;DHT22;57172;52.034;5.090;2022-10-17T16:57:35;17.80;78.20
69895;DHT22;57172;52.034;5.090;2022-10-17T17:00:06;17.70;78.40
69895;DHT22;57172;52.034;5.090;2022-10-17T17:02:33;17.70;78.70
69895;DHT22;57172;52.034;5.090;2022-10-17T17:05:00;17.70;78.80
69895;DHT22;57172;52.034;5.090;2022-10-17T17:07:27;17.60;78.80
69895;DHT22;57172;52.034;5.090;2022-10-17T17:09:55;17.60;78.70
69895;DHT22;57172;52.034;5.090;2022-10-17T17:12:22;17.60;78.70
69895;DHT22;57172;52.034;5.090;2022-10-17T17:14:49;17.60;78.60
69895;DHT22;57172;52.034;5.090;2022-10-17T17:17:16;17.60;78.80
69895;DHT22;57172;52.034;5.090;2022-10-17T17:20:03;17.60;78.70
69895;DHT22;57172;52.034;5.090;2022-10-17T17:22:30;17.60;78.70
69895;DHT22;57172;52.034;5.090;2022-10-17T17:24:56;17.50;78.70
69895;DHT22;57172;52.034;5.090;2022-10-17T17:27:26;17.50;78.80
69895;DHT22;57172;52.034;5.090;2022-10-17T17:29:54;17.50;78.90
69895;DHT22;57172;52.034;5.090;2022-10-17T17:32:21;17.50;79.10
69895;DHT22;57172;52.034;5.090;2022-10-17T17:34:48;17.50;79.20
69895;DHT22;57172;52.034;5.090;2022-10-17T17:37:14;17.40;79.20
69895;DHT22;57172;52.034;5.090;2022-10-17T17:39:41;17.40;79.40
69895;DHT22;57172;52.034;5.090;2022-10-17T17:42:08;17.40;79.50
69895;DHT22;57172;52.034;5.090;2022-10-17T17:44:35;17.40;79.60
69895;DHT22;57172;52.034;5.090;2022-10-17T17:47:02;17.40;79.80
69895;DHT22;57172;52.034;5.090;2022-10-17T17:49:28;17.40;79.90
69895;DHT22;57172;52.034;5.090;2022-10-17T17:51:55;17.40;79.90
69895;DHT22;57172;52.034;5.090;2022-10-17T17:54:22;17.40;80.00
69895;DHT22;57172;52.034;5.090;2022-10-17T17:56:49;17.40;80.00